sensor_id;sensor_type;location;lat;lon;timestamp;P1;durP1;ratioP1;P2;durP2;ratioP2
16199;SDS011;8207;52.494;4.654;2023-05-21T00:01:41;7.07;;;4.80;;
16199;SDS011;8207;52.494;4.654;2023-05-21T00:04:08;8.67;;;4.73;;
16199;SDS011;8207;52.494;4.654;2023-05-21T00:06:35;9.10;;;5.10;;
16199;SDS011;8207;52.494;4.654;2023-05-21T00:09:04;9.23;;;5.07;;
16199;SDS011;8207;52.494;4.654;2023-05-21T00:11:32;7.10;;;4.70;;
16199;SDS011;8207;52.494;4.654;2023-05-21T00:13:59;7.30;;;5.03;;
16199;SDS011;8207;52.494;4.654;2023-05-21T00:16:25;11.80;;;5.20;;
16199;SDS011;8207;52.494;4.654;2023-05-21T00:18:52;12.80;;;5.70;;
16199;SDS011;8207;52.494;4.654;2023-05-21T00:21:19;9.40;;;5.27;;
16199;SDS011;8207;52.494;4.654;2023-05-21T00:23:47;6.47;;;4.77;;
16199;SDS011;8207;52.494;4.654;2023-05-21T00:26:15;7.80;;;4.80;;
16199;SDS011;8207;52.494;4.654;2023-05-21T00:28:42;10.00;;;5.07;;
16199;SDS011;8207;52.494;4.654;2023-05-21T00:31:09;8.37;;;5.10;;
16199;SDS011;8207;52.494;4.654;2023-05-21T00:33:36;8.27;;;5.63;;
16199;SDS011;8207;52.494;4.654;2023-05-21T00:36:03;7.83;;;5.27;;
16199;SDS011;8207;52.494;4.654;2023-05-21T00:38:31;8.03;;;4.87;;
16199;SDS011;8207;52.494;4.654;2023-05-21T00:40:59;8.77;;;5.27;;
16199;SDS011;8207;52.494;4.654;2023-05-21T00:43:28;7.63;;;5.40;;
16199;SDS011;8207;52.494;4.654;2023-05-21T00:45:56;7.67;;;5.27;;
16199;SDS011;8207;52.494;4.654;2023-05-21T00:48:23;9.10;;;5.97;;
16199;SDS011;8207;52.494;4.654;2023-05-21T00:50:51;6.20;;;4.97;;
16199;SDS011;8207;52.494;4.654;2023-05-21T00:53:18;7.17;;;5.80;;
16199;SDS011;8207;52.494;4.654;2023-05-21T00:55:45;6.47;;;5.37;;
16199;SDS011;8207;52.494;4.654;2023-05-21T00:58:13;8.37;;;5.47;;
16199;SDS011;8207;52.494;4.654;2023-05-21T01:00:43;7.67;;;5.80;;
16199;SDS011;8207;52.494;4.654;2023-05-21T01:03:10;9.17;;;5.87;;
16199;SDS011;8207;52.494;4.654;2023-05-21T01:05:38;9.80;;;6.03;;
16199;SDS011;8207;52.494;4.654;2023-05-21T01:08:09;10.10;;;5.20;;
16199;SDS011;8207;52.494;4.654;2023-05-21T01:10:36;9.47;;;5.97;;
16199;SDS011;8207;52.494;4.654;2023-05-21T01:13:03;7.90;;;5.77;;
16199;SDS011;8207;52.494;4.654;2023-05-21T01:15:30;7.87;;;5.80;;
16199;SDS011;8207;52.494;4.654;2023-05-21T01:17:59;10.33;;;5.70;;
16199;SDS011;8207;52.494;4.654;2023-05-21T01:20:26;8.00;;;5.37;;
16199;SDS011;8207;52.494;4.654;2023-05-21T01:22:57;8.47;;;5.80;;
16199;SDS011;8207;52.494;4.654;2023-05-21T01:25:24;6.80;;;5.43;;
16199;SDS011;8207;52.494;4.654;2023-05-21T01:27:51;13.60;;;6.63;;
16199;SDS011;8207;52.494;4.654;2023-05-21T01:30:18;7.40;;;4.90;;
16199;SDS011;8207;52.494;4.654;2023-05-21T01:32:48;11.27;;;6.70;;
16199;SDS011;8207;52.494;4.654;2023-05-21T01:35:23;7.10;;;5.60;;
16199;SDS011;8207;52.494;4.654;2023-05-21T01:37:54;7.10;;;5.53;;
16199;SDS011;8207;52.494;4.654;2023-05-21T01:40:30;9.90;;;5.83;;
16199;SDS011;8207;52.494;4.654;2023-05-21T01:43:02;8.57;;;5.90;;
16199;SDS011;8207;52.494;4.654;2023-05-21T01:45:30;10.47;;;6.63;;
16199;SDS011;8207;52.494;4.654;2023-05-21T01:47:59;8.13;;;5.33;;
16199;SDS011;8207;52.494;4.654;2023-05-21T01:50:26;6.67;;;5.37;;
16199;SDS011;8207;52.494;4.654;2023-05-21T01:52:56;10.37;;;5.93;;
16199;SDS011;8207;52.494;4.654;2023-05-21T01:55:26;7.77;;;5.93;;
16199;SDS011;8207;52.494;4.654;2023-05-21T01:57:55;8.03;;;6.10;;
16199;SDS011;8207;52.494;4.654;2023-05-21T02:00:22;8.07;;;5.40;;
16199;SDS011;8207;52.494;4.654;2023-05-21T02:02:52;7.97;;;6.30;;
16199;SDS011;8207;52.494;4.654;2023-05-21T02:05:19;7.57;;;6.10;;
16199;SDS011;8207;52.494;4.654;2023-05-21T02:07:46;8.20;;;5.87;;
16199;SDS011;8207;52.494;4.654;2023-05-21T02:10:13;8.60;;;6.03;;
16199;SDS011;8207;52.494;4.654;2023-05-21T02:12:42;12.67;;;6.50;;
16199;SDS011;8207;52.494;4.654;2023-05-21T02:15:09;9.13;;;5.87;;
16199;SDS011;8207;52.494;4.654;2023-05-21T02:17:38;9.63;;;6.10;;
16199;SDS011;8207;52.494;4.654;2023-05-21T02:20:06;10.73;;;6.37;;
16199;SDS011;8207;52.494;4.654;2023-05-21T02:22:36;7.47;;;6.10;;
16199;SDS011;8207;52.494;4.654;2023-05-21T02:25:04;7.70;;;6.40;;
16199;SDS011;8207;52.494;4.654;2023-05-21T02:27:32;8.03;;;6.23;;
16199;SDS011;8207;52.494;4.654;2023-05-21T02:30:03;9.10;;;6.57;;
16199;SDS011;8207;52.494;4.654;2023-05-21T02:32:31;7.57;;;6.07;;
16199;SDS011;8207;52.494;4.654;2023-05-21T02:34:58;7.40;;;5.43;;
16199;SDS011;8207;52.494;4.654;2023-05-21T02:37:26;7.53;;;5.10;;
16199;SDS011;8207;52.494;4.654;2023-05-21T02:39:53;7.90;;;6.73;;
16199;SDS011;8207;52.494;4.654;2023-05-21T02:42:20;8.43;;;6.00;;
16199;SDS011;8207;52.494;4.654;2023-05-21T02:44:47;8.73;;;5.73;;
16199;SDS011;8207;52.494;4.654;2023-05-21T02:47:16;7.03;;;5.70;;
16199;SDS011;8207;52.494;4.654;2023-05-21T02:49:43;8.17;;;6.10;;
16199;SDS011;8207;52.494;4.654;2023-05-21T02:52:10;7.40;;;5.90;;
16199;SDS011;8207;52.494;4.654;2023-05-21T02:54:37;8.60;;;6.03;;
16199;SDS011;8207;52.494;4.654;2023-05-21T02:57:04;8.87;;;6.33;;
16199;SDS011;8207;52.494;4.654;2023-05-21T02:59:31;7.53;;;5.57;;
16199;SDS011;8207;52.494;4.654;2023-05-21T03:01:58;8.90;;;6.40;;
16199;SDS011;8207;52.494;4.654;2023-05-21T03:04:26;7.90;;;6.03;;
16199;SDS011;8207;52.494;4.654;2023-05-21T03:06:53;9.30;;;6.17;;
16199;SDS011;8207;52.494;4.654;2023-05-21T03:09:20;6.13;;;5.53;;
16199;SDS011;8207;52.494;4.654;2023-05-21T03:11:47;6.00;;;5.40;;
16199;SDS011;8207;52.494;4.654;2023-05-21T03:14:14;9.37;;;5.53;;
16199;SDS011;8207;52.494;4.654;2023-05-21T03:16:41;8.40;;;6.10;;
16199;SDS011;8207;52.494;4.654;2023-05-21T03:19:09;7.83;;;6.77;;
16199;SDS011;8207;52.494;4.654;2023-05-21T03:21:37;8.10;;;5.60;;
16199;SDS011;8207;52.494;4.654;2023-05-21T03:24:05;7.27;;;6.37;;
16199;SDS011;8207;52.494;4.654;2023-05-21T03:26:32;7.33;;;6.33;;
16199;SDS011;8207;52.494;4.654;2023-05-21T03:28:58;8.60;;;7.03;;
16199;SDS011;8207;52.494;4.654;2023-05-21T03:31:26;8.10;;;6.20;;
16199;SDS011;8207;52.494;4.654;2023-05-21T03:33:53;9.27;;;6.27;;
16199;SDS011;8207;52.494;4.654;2023-05-21T03:36:20;8.73;;;6.23;;
16199;SDS011;8207;52.494;4.654;2023-05-21T03:38:48;9.07;;;6.73;;
16199;SDS011;8207;52.494;4.654;2023-05-21T03:41:15;10.27;;;6.77;;
16199;SDS011;8207;52.494;4.654;2023-05-21T03:43:42;6.57;;;5.67;;
16199;SDS011;8207;52.494;4.654;2023-05-21T03:46:09;6.80;;;6.10;;
16199;SDS011;8207;52.494;4.654;2023-05-21T03:48:35;8.00;;;6.13;;
16199;SDS011;8207;52.494;4.654;2023-05-21T03:51:02;6.83;;;5.70;;
16199;SDS011;8207;52.494;4.654;2023-05-21T03:53:32;8.60;;;6.83;;
16199;SDS011;8207;52.494;4.654;2023-05-21T03:56:00;7.67;;;6.27;;
16199;SDS011;8207;52.494;4.654;2023-05-21T03:58:27;9.27;;;6.57;;
16199;SDS011;8207;52.494;4.654;2023-05-21T04:00:54;6.97;;;6.03;;
16199;SDS011;8207;52.494;4.654;2023-05-21T04:03:21;7.93;;;6.17;;
16199;SDS011;8207;52.494;4.654;2023-05-21T04:05:48;10.37;;;5.97;;
16199;SDS011;8207;52.494;4.654;2023-05-21T04:08:15;6.57;;;5.80;;
16199;SDS011;8207;52.494;4.654;2023-05-21T04:10:41;6.93;;;5.27;;
16199;SDS011;8207;52.494;4.654;2023-05-21T04:13:10;7.57;;;6.47;;
16199;SDS011;8207;52.494;4.654;2023-05-21T04:15:37;8.23;;;5.93;;
16199;SDS011;8207;52.494;4.654;2023-05-21T04:18:03;8.63;;;5.40;;
16199;SDS011;8207;52.494;4.654;2023-05-21T04:20:31;9.27;;;6.07;;
16199;SDS011;8207;52.494;4.654;2023-05-21T04:22:57;11.63;;;6.80;;
16199;SDS011;8207;52.494;4.654;2023-05-21T04:25:25;9.70;;;6.03;;
16199;SDS011;8207;52.494;4.654;2023-05-21T04:27:52;7.50;;;6.03;;
16199;SDS011;8207;52.494;4.654;2023-05-21T04:30:20;6.10;;;5.50;;
16199;SDS011;8207;52.494;4.654;2023-05-21T04:32:48;9.33;;;7.10;;
16199;SDS011;8207;52.494;4.654;2023-05-21T04:35:16;7.97;;;6.10;;
16199;SDS011;8207;52.494;4.654;2023-05-21T04:37:43;6.43;;;5.83;;
16199;SDS011;8207;52.494;4.654;2023-05-21T04:40:11;7.67;;;5.83;;
16199;SDS011;8207;52.494;4.654;2023-05-21T04:42:42;8.30;;;6.20;;
16199;SDS011;8207;52.494;4.654;2023-05-21T04:45:09;7.60;;;5.97;;
16199;SDS011;8207;52.494;4.654;2023-05-21T04:47:38;10.83;;;6.37;;
16199;SDS011;8207;52.494;4.654;2023-05-21T04:50:05;6.50;;;5.73;;
16199;SDS011;8207;52.494;4.654;2023-05-21T04:52:33;8.23;;;6.13;;
16199;SDS011;8207;52.494;4.654;2023-05-21T04:54:59;8.23;;;6.27;;
16199;SDS011;8207;52.494;4.654;2023-05-21T04:57:26;9.73;;;5.80;;
16199;SDS011;8207;52.494;4.654;2023-05-21T04:59:54;6.27;;;5.67;;
16199;SDS011;8207;52.494;4.654;2023-05-21T05:02:21;5.93;;;5.43;;
16199;SDS011;8207;52.494;4.654;2023-05-21T05:04:50;8.30;;;6.27;;
16199;SDS011;8207;52.494;4.654;2023-05-21T05:07:17;7.40;;;6.40;;
16199;SDS011;8207;52.494;4.654;2023-05-21T05:09:44;6.87;;;5.40;;
16199;SDS011;8207;52.494;4.654;2023-05-21T05:12:10;7.37;;;5.93;;
16199;SDS011;8207;52.494;4.654;2023-05-21T05:14:37;6.97;;;5.57;;
16199;SDS011;8207;52.494;4.654;2023-05-21T05:17:04;6.20;;;5.60;;
16199;SDS011;8207;52.494;4.654;2023-05-21T05:19:34;6.77;;;5.57;;
16199;SDS011;8207;52.494;4.654;2023-05-21T05:22:02;6.20;;;5.27;;
16199;SDS011;8207;52.494;4.654;2023-05-21T05:24:29;9.40;;;5.93;;
16199;SDS011;8207;52.494;4.654;2023-05-21T05:26:56;7.40;;;5.50;;
16199;SDS011;8207;52.494;4.654;2023-05-21T05:29:23;11.83;;;6.07;;
16199;SDS011;8207;52.494;4.654;2023-05-21T05:31:50;7.73;;;5.27;;
16199;SDS011;8207;52.494;4.654;2023-05-21T05:34:17;6.80;;;5.33;;
16199;SDS011;8207;52.494;4.654;2023-05-21T05:36:44;7.03;;;5.22;;
16199;SDS011;8207;52.494;4.654;2023-05-21T05:39:12;8.95;;;5.82;;
16199;SDS011;8207;52.494;4.654;2023-05-21T05:41:39;8.60;;;5.65;;
16199;SDS011;8207;52.494;4.654;2023-05-21T05:44:06;7.38;;;5.75;;
16199;SDS011;8207;52.494;4.654;2023-05-21T05:46:33;8.02;;;5.68;;
16199;SDS011;8207;52.494;4.654;2023-05-21T05:49:00;9.05;;;5.50;;
16199;SDS011;8207;52.494;4.654;2023-05-21T05:51:26;8.27;;;5.93;;
16199;SDS011;8207;52.494;4.654;2023-05-21T05:53:54;7.70;;;5.80;;
16199;SDS011;8207;52.494;4.654;2023-05-21T05:56:22;6.03;;;4.90;;
16199;SDS011;8207;52.494;4.654;2023-05-21T05:58:49;7.22;;;5.88;;
16199;SDS011;8207;52.494;4.654;2023-05-21T06:01:16;6.57;;;5.40;;
16199;SDS011;8207;52.494;4.654;2023-05-21T06:03:43;6.90;;;5.55;;
16199;SDS011;8207;52.494;4.654;2023-05-21T06:06:11;7.45;;;5.55;;
16199;SDS011;8207;52.494;4.654;2023-05-21T06:08:38;6.85;;;5.72;;
16199;SDS011;8207;52.494;4.654;2023-05-21T06:11:05;7.50;;;5.68;;
16199;SDS011;8207;52.494;4.654;2023-05-21T06:13:33;7.88;;;5.60;;
16199;SDS011;8207;52.494;4.654;2023-05-21T06:16:00;10.05;;;5.68;;
16199;SDS011;8207;52.494;4.654;2023-05-21T06:18:27;6.80;;;5.40;;
16199;SDS011;8207;52.494;4.654;2023-05-21T06:20:54;6.20;;;5.38;;
16199;SDS011;8207;52.494;4.654;2023-05-21T06:23:21;8.98;;;5.97;;
16199;SDS011;8207;52.494;4.654;2023-05-21T06:25:48;10.88;;;6.40;;
16199;SDS011;8207;52.494;4.654;2023-05-21T06:28:15;6.25;;;4.90;;
16199;SDS011;8207;52.494;4.654;2023-05-21T06:30:44;7.50;;;5.65;;
16199;SDS011;8207;52.494;4.654;2023-05-21T06:33:11;7.05;;;5.25;;
16199;SDS011;8207;52.494;4.654;2023-05-21T06:35:37;7.82;;;5.53;;
16199;SDS011;8207;52.494;4.654;2023-05-21T06:38:04;8.68;;;5.75;;
16199;SDS011;8207;52.494;4.654;2023-05-21T06:40:32;7.10;;;4.57;;
16199;SDS011;8207;52.494;4.654;2023-05-21T06:43:00;9.27;;;5.38;;
16199;SDS011;8207;52.494;4.654;2023-05-21T06:45:28;7.65;;;4.82;;
16199;SDS011;8207;52.494;4.654;2023-05-21T06:47:57;7.93;;;5.03;;
16199;SDS011;8207;52.494;4.654;2023-05-21T06:50:24;8.32;;;5.15;;
16199;SDS011;8207;52.494;4.654;2023-05-21T06:52:51;9.88;;;5.68;;
16199;SDS011;8207;52.494;4.654;2023-05-21T06:55:18;7.57;;;5.18;;
16199;SDS011;8207;52.494;4.654;2023-05-21T06:57:45;9.80;;;5.03;;
16199;SDS011;8207;52.494;4.654;2023-05-21T07:00:12;6.60;;;4.78;;
16199;SDS011;8207;52.494;4.654;2023-05-21T07:02:39;9.20;;;5.25;;
16199;SDS011;8207;52.494;4.654;2023-05-21T07:05:08;7.50;;;5.20;;
16199;SDS011;8207;52.494;4.654;2023-05-21T07:07:35;9.52;;;5.10;;
16199;SDS011;8207;52.494;4.654;2023-05-21T07:10:02;9.35;;;5.00;;
16199;SDS011;8207;52.494;4.654;2023-05-21T07:12:30;9.45;;;5.03;;
16199;SDS011;8207;52.494;4.654;2023-05-21T07:14:58;11.20;;;5.13;;
16199;SDS011;8207;52.494;4.654;2023-05-21T07:17:24;8.77;;;5.10;;
16199;SDS011;8207;52.494;4.654;2023-05-21T07:19:51;9.10;;;5.63;;
16199;SDS011;8207;52.494;4.654;2023-05-21T07:22:20;7.10;;;5.10;;
16199;SDS011;8207;52.494;4.654;2023-05-21T07:24:47;7.13;;;4.63;;
16199;SDS011;8207;52.494;4.654;2023-05-21T07:27:14;8.32;;;5.35;;
16199;SDS011;8207;52.494;4.654;2023-05-21T07:29:40;8.38;;;5.15;;
16199;SDS011;8207;52.494;4.654;2023-05-21T07:32:07;11.98;;;5.72;;
16199;SDS011;8207;52.494;4.654;2023-05-21T07:34:34;7.57;;;5.10;;
16199;SDS011;8207;52.494;4.654;2023-05-21T07:37:01;8.13;;;5.78;;
16199;SDS011;8207;52.494;4.654;2023-05-21T07:39:29;9.25;;;5.10;;
16199;SDS011;8207;52.494;4.654;2023-05-21T07:41:56;7.25;;;4.63;;
16199;SDS011;8207;52.494;4.654;2023-05-21T07:44:23;9.32;;;5.32;;
16199;SDS011;8207;52.494;4.654;2023-05-21T07:46:50;8.30;;;4.78;;
16199;SDS011;8207;52.494;4.654;2023-05-21T07:49:17;7.97;;;5.65;;
16199;SDS011;8207;52.494;4.654;2023-05-21T07:51:44;7.05;;;5.18;;
16199;SDS011;8207;52.494;4.654;2023-05-21T07:54:11;8.93;;;6.68;;
16199;SDS011;8207;52.494;4.654;2023-05-21T07:56:39;9.75;;;5.65;;
16199;SDS011;8207;52.494;4.654;2023-05-21T07:59:06;6.63;;;5.53;;
16199;SDS011;8207;52.494;4.654;2023-05-21T08:01:33;9.55;;;5.15;;
16199;SDS011;8207;52.494;4.654;2023-05-21T08:04:01;8.05;;;5.20;;
16199;SDS011;8207;52.494;4.654;2023-05-21T08:06:29;9.13;;;5.22;;
16199;SDS011;8207;52.494;4.654;2023-05-21T08:08:58;9.75;;;5.60;;
16199;SDS011;8207;52.494;4.654;2023-05-21T08:11:25;7.95;;;5.97;;
16199;SDS011;8207;52.494;4.654;2023-05-21T08:13:54;6.78;;;5.80;;
16199;SDS011;8207;52.494;4.654;2023-05-21T08:16:21;7.43;;;4.85;;
16199;SDS011;8207;52.494;4.654;2023-05-21T08:18:48;7.57;;;4.88;;
16199;SDS011;8207;52.494;4.654;2023-05-21T08:21:15;7.63;;;5.43;;
16199;SDS011;8207;52.494;4.654;2023-05-21T08:23:42;6.93;;;5.22;;
16199;SDS011;8207;52.494;4.654;2023-05-21T08:26:09;10.25;;;6.10;;
16199;SDS011;8207;52.494;4.654;2023-05-21T08:28:36;10.48;;;5.93;;
16199;SDS011;8207;52.494;4.654;2023-05-21T08:31:05;11.43;;;6.00;;
16199;SDS011;8207;52.494;4.654;2023-05-21T08:33:33;9.00;;;5.72;;
16199;SDS011;8207;52.494;4.654;2023-05-21T08:36:01;8.48;;;5.47;;
16199;SDS011;8207;52.494;4.654;2023-05-21T08:38:28;7.82;;;5.57;;
16199;SDS011;8207;52.494;4.654;2023-05-21T08:40:55;7.80;;;5.82;;
16199;SDS011;8207;52.494;4.654;2023-05-21T08:43:23;10.20;;;5.65;;
16199;SDS011;8207;52.494;4.654;2023-05-21T08:45:53;7.00;;;5.78;;
16199;SDS011;8207;52.494;4.654;2023-05-21T08:48:22;7.22;;;5.32;;
16199;SDS011;8207;52.494;4.654;2023-05-21T08:50:50;5.72;;;4.95;;
16199;SDS011;8207;52.494;4.654;2023-05-21T08:53:18;8.90;;;6.00;;
16199;SDS011;8207;52.494;4.654;2023-05-21T08:55:45;8.38;;;5.70;;
16199;SDS011;8207;52.494;4.654;2023-05-21T08:58:14;7.07;;;5.50;;
16199;SDS011;8207;52.494;4.654;2023-05-21T09:00:41;6.03;;;5.30;;
16199;SDS011;8207;52.494;4.654;2023-05-21T09:03:09;7.68;;;5.55;;
16199;SDS011;8207;52.494;4.654;2023-05-21T09:05:39;9.48;;;6.10;;
16199;SDS011;8207;52.494;4.654;2023-05-21T09:08:08;10.30;;;5.65;;
16199;SDS011;8207;52.494;4.654;2023-05-21T09:10:47;8.40;;;5.88;;
16199;SDS011;8207;52.494;4.654;2023-05-21T09:13:15;6.82;;;5.45;;
16199;SDS011;8207;52.494;4.654;2023-05-21T09:15:43;10.13;;;5.55;;
16199;SDS011;8207;52.494;4.654;2023-05-21T09:18:11;6.47;;;5.45;;
16199;SDS011;8207;52.494;4.654;2023-05-21T09:20:40;8.07;;;5.07;;
16199;SDS011;8207;52.494;4.654;2023-05-21T09:23:08;12.00;;;5.50;;
16199;SDS011;8207;52.494;4.654;2023-05-21T09:25:40;8.20;;;5.07;;
16199;SDS011;8207;52.494;4.654;2023-05-21T09:28:10;7.47;;;5.25;;
16199;SDS011;8207;52.494;4.654;2023-05-21T09:30:42;10.63;;;5.15;;
16199;SDS011;8207;52.494;4.654;2023-05-21T09:33:10;7.55;;;5.00;;
16199;SDS011;8207;52.494;4.654;2023-05-21T09:35:44;5.50;;;4.70;;
16199;SDS011;8207;52.494;4.654;2023-05-21T09:38:11;8.98;;;4.88;;
16199;SDS011;8207;52.494;4.654;2023-05-21T09:40:41;9.73;;;5.18;;
16199;SDS011;8207;52.494;4.654;2023-05-21T09:43:12;7.07;;;4.75;;
16199;SDS011;8207;52.494;4.654;2023-05-21T09:45:48;9.68;;;5.72;;
16199;SDS011;8207;52.494;4.654;2023-05-21T09:48:16;4.90;;;4.38;;
16199;SDS011;8207;52.494;4.654;2023-05-21T09:51:07;6.97;;;5.05;;
16199;SDS011;8207;52.494;4.654;2023-05-21T09:53:47;6.15;;;4.60;;
16199;SDS011;8207;52.494;4.654;2023-05-21T09:56:16;6.03;;;4.63;;
16199;SDS011;8207;52.494;4.654;2023-05-21T09:58:47;6.05;;;4.90;;
16199;SDS011;8207;52.494;4.654;2023-05-21T10:01:18;5.85;;;4.68;;
16199;SDS011;8207;52.494;4.654;2023-05-21T10:03:46;6.38;;;4.10;;
16199;SDS011;8207;52.494;4.654;2023-05-21T10:06:19;6.90;;;4.70;;
16199;SDS011;8207;52.494;4.654;2023-05-21T10:08:47;5.47;;;4.57;;
16199;SDS011;8207;52.494;4.654;2023-05-21T10:11:17;6.40;;;4.97;;
16199;SDS011;8207;52.494;4.654;2023-05-21T10:13:47;6.95;;;5.25;;
16199;SDS011;8207;52.494;4.654;2023-05-21T10:16:16;7.18;;;5.00;;
16199;SDS011;8207;52.494;4.654;2023-05-21T10:18:43;6.80;;;5.28;;
16199;SDS011;8207;52.494;4.654;2023-05-21T10:21:13;8.52;;;5.47;;
16199;SDS011;8207;52.494;4.654;2023-05-21T10:23:42;5.90;;;5.30;;
16199;SDS011;8207;52.494;4.654;2023-05-21T10:26:11;6.30;;;5.50;;
16199;SDS011;8207;52.494;4.654;2023-05-21T10:28:38;8.07;;;5.22;;
16199;SDS011;8207;52.494;4.654;2023-05-21T10:31:05;9.30;;;4.97;;
16199;SDS011;8207;52.494;4.654;2023-05-21T10:33:33;6.60;;;4.70;;
16199;SDS011;8207;52.494;4.654;2023-05-21T10:36:01;8.48;;;4.70;;
16199;SDS011;8207;52.494;4.654;2023-05-21T10:38:28;5.97;;;4.53;;
16199;SDS011;8207;52.494;4.654;2023-05-21T10:40:58;8.02;;;5.40;;
16199;SDS011;8207;52.494;4.654;2023-05-21T10:43:30;7.10;;;4.95;;
16199;SDS011;8207;52.494;4.654;2023-05-21T10:49:40;6.80;;;5.20;;
16199;SDS011;8207;52.494;4.654;2023-05-21T10:52:19;8.15;;;4.78;;
16199;SDS011;8207;52.494;4.654;2023-05-21T10:55:12;7.93;;;4.93;;
16199;SDS011;8207;52.494;4.654;2023-05-21T10:58:05;8.13;;;5.05;;
16199;SDS011;8207;52.494;4.654;2023-05-21T11:00:54;7.75;;;4.35;;
16199;SDS011;8207;52.494;4.654;2023-05-21T11:03:21;7.78;;;4.65;;
16199;SDS011;8207;52.494;4.654;2023-05-21T11:05:53;7.15;;;4.70;;
16199;SDS011;8207;52.494;4.654;2023-05-21T11:08:21;6.90;;;5.03;;
16199;SDS011;8207;52.494;4.654;2023-05-21T11:10:52;6.97;;;4.20;;
16199;SDS011;8207;52.494;4.654;2023-05-21T11:13:23;6.10;;;4.38;;
16199;SDS011;8207;52.494;4.654;2023-05-21T11:16:06;5.85;;;4.30;;
16199;SDS011;8207;52.494;4.654;2023-05-21T11:19:00;4.93;;;4.40;;
16199;SDS011;8207;52.494;4.654;2023-05-21T11:21:28;11.93;;;5.05;;
16199;SDS011;8207;52.494;4.654;2023-05-21T11:23:58;8.25;;;4.60;;
16199;SDS011;8207;52.494;4.654;2023-05-21T11:26:27;5.63;;;4.22;;
16199;SDS011;8207;52.494;4.654;2023-05-21T11:29:09;9.15;;;4.60;;
16199;SDS011;8207;52.494;4.654;2023-05-21T11:31:36;5.50;;;3.80;;
16199;SDS011;8207;52.494;4.654;2023-05-21T11:34:10;5.25;;;4.47;;
16199;SDS011;8207;52.494;4.654;2023-05-21T11:36:38;6.32;;;4.40;;
16199;SDS011;8207;52.494;4.654;2023-05-21T11:39:08;6.55;;;4.57;;
16199;SDS011;8207;52.494;4.654;2023-05-21T11:41:52;7.03;;;4.90;;
16199;SDS011;8207;52.494;4.654;2023-05-21T11:44:39;6.40;;;4.00;;
16199;SDS011;8207;52.494;4.654;2023-05-21T11:47:08;6.53;;;4.40;;
16199;SDS011;8207;52.494;4.654;2023-05-21T11:49:36;7.88;;;4.30;;
16199;SDS011;8207;52.494;4.654;2023-05-21T11:52:04;4.90;;;4.40;;
16199;SDS011;8207;52.494;4.654;2023-05-21T11:54:32;5.85;;;4.25;;
16199;SDS011;8207;52.494;4.654;2023-05-21T11:57:05;6.43;;;4.53;;
16199;SDS011;8207;52.494;4.654;2023-05-21T11:59:33;6.38;;;4.40;;
16199;SDS011;8207;52.494;4.654;2023-05-21T12:02:01;5.47;;;4.50;;
16199;SDS011;8207;52.494;4.654;2023-05-21T12:04:29;6.60;;;4.07;;
16199;SDS011;8207;52.494;4.654;2023-05-21T12:06:56;5.78;;;4.25;;
16199;SDS011;8207;52.494;4.654;2023-05-21T12:09:23;5.80;;;4.60;;
16199;SDS011;8207;52.494;4.654;2023-05-21T12:11:50;5.05;;;4.00;;
16199;SDS011;8207;52.494;4.654;2023-05-21T12:14:17;5.10;;;4.30;;
16199;SDS011;8207;52.494;4.654;2023-05-21T12:16:44;8.02;;;4.80;;
16199;SDS011;8207;52.494;4.654;2023-05-21T12:19:12;6.13;;;4.45;;
16199;SDS011;8207;52.494;4.654;2023-05-21T12:21:43;6.40;;;4.22;;
16199;SDS011;8207;52.494;4.654;2023-05-21T12:24:10;6.55;;;4.32;;
16199;SDS011;8207;52.494;4.654;2023-05-21T12:26:37;6.63;;;4.45;;
16199;SDS011;8207;52.494;4.654;2023-05-21T12:29:06;6.63;;;4.65;;
16199;SDS011;8207;52.494;4.654;2023-05-21T12:31:33;5.78;;;4.65;;
16199;SDS011;8207;52.494;4.654;2023-05-21T12:34:14;6.60;;;4.68;;
16199;SDS011;8207;52.494;4.654;2023-05-21T12:36:42;10.20;;;4.93;;
16199;SDS011;8207;52.494;4.654;2023-05-21T12:39:14;6.40;;;5.32;;
16199;SDS011;8207;52.494;4.654;2023-05-21T12:41:41;5.25;;;4.43;;
16199;SDS011;8207;52.494;4.654;2023-05-21T12:44:09;5.28;;;4.78;;
16199;SDS011;8207;52.494;4.654;2023-05-21T12:46:36;9.90;;;5.18;;
16199;SDS011;8207;52.494;4.654;2023-05-21T12:49:03;6.20;;;4.97;;
16199;SDS011;8207;52.494;4.654;2023-05-21T12:51:38;5.88;;;4.55;;
16199;SDS011;8207;52.494;4.654;2023-05-21T12:54:10;6.32;;;4.63;;
16199;SDS011;8207;52.494;4.654;2023-05-21T12:56:42;6.00;;;5.00;;
16199;SDS011;8207;52.494;4.654;2023-05-21T12:59:11;8.00;;;5.28;;
16199;SDS011;8207;52.494;4.654;2023-05-21T13:01:39;4.65;;;4.25;;
16199;SDS011;8207;52.494;4.654;2023-05-21T13:04:07;8.88;;;5.03;;
16199;SDS011;8207;52.494;4.654;2023-05-21T13:06:41;5.40;;;4.78;;
16199;SDS011;8207;52.494;4.654;2023-05-21T13:09:08;5.93;;;4.75;;
16199;SDS011;8207;52.494;4.654;2023-05-21T13:11:35;5.88;;;4.45;;
16199;SDS011;8207;52.494;4.654;2023-05-21T13:14:02;6.25;;;4.57;;
16199;SDS011;8207;52.494;4.654;2023-05-21T13:16:29;5.00;;;4.53;;
16199;SDS011;8207;52.494;4.654;2023-05-21T13:18:56;9.00;;;4.18;;
16199;SDS011;8207;52.494;4.654;2023-05-21T13:21:23;7.15;;;4.22;;
16199;SDS011;8207;52.494;4.654;2023-05-21T13:23:51;7.00;;;4.55;;
16199;SDS011;8207;52.494;4.654;2023-05-21T13:26:18;5.18;;;4.43;;
16199;SDS011;8207;52.494;4.654;2023-05-21T13:28:45;5.22;;;4.47;;
16199;SDS011;8207;52.494;4.654;2023-05-21T13:31:12;7.22;;;4.88;;
16199;SDS011;8207;52.494;4.654;2023-05-21T13:33:40;6.80;;;4.18;;
16199;SDS011;8207;52.494;4.654;2023-05-21T13:36:07;6.18;;;4.60;;
16199;SDS011;8207;52.494;4.654;2023-05-21T13:38:34;7.65;;;4.78;;
16199;SDS011;8207;52.494;4.654;2023-05-21T13:41:02;5.38;;;4.25;;
16199;SDS011;8207;52.494;4.654;2023-05-21T13:43:29;6.88;;;4.18;;
16199;SDS011;8207;52.494;4.654;2023-05-21T13:45:57;6.90;;;4.70;;
16199;SDS011;8207;52.494;4.654;2023-05-21T13:48:24;10.65;;;4.65;;
16199;SDS011;8207;52.494;4.654;2023-05-21T13:50:50;5.55;;;4.45;;
16199;SDS011;8207;52.494;4.654;2023-05-21T13:53:17;7.55;;;4.25;;
16199;SDS011;8207;52.494;4.654;2023-05-21T13:55:44;7.72;;;4.32;;
16199;SDS011;8207;52.494;4.654;2023-05-21T13:58:13;9.45;;;4.20;;
16199;SDS011;8207;52.494;4.654;2023-05-21T14:00:40;6.95;;;3.85;;
16199;SDS011;8207;52.494;4.654;2023-05-21T14:03:07;6.75;;;5.07;;
16199;SDS011;8207;52.494;4.654;2023-05-21T14:05:34;5.75;;;4.07;;
16199;SDS011;8207;52.494;4.654;2023-05-21T14:08:01;6.68;;;4.50;;
16199;SDS011;8207;52.494;4.654;2023-05-21T14:10:28;8.10;;;4.20;;
16199;SDS011;8207;52.494;4.654;2023-05-21T14:12:55;5.93;;;4.97;;
16199;SDS011;8207;52.494;4.654;2023-05-21T14:15:24;5.70;;;4.20;;
16199;SDS011;8207;52.494;4.654;2023-05-21T14:17:50;10.07;;;3.67;;
16199;SDS011;8207;52.494;4.654;2023-05-21T14:20:17;6.78;;;4.07;;
16199;SDS011;8207;52.494;4.654;2023-05-21T14:22:44;9.52;;;3.85;;
16199;SDS011;8207;52.494;4.654;2023-05-21T14:25:11;5.43;;;4.07;;
16199;SDS011;8207;52.494;4.654;2023-05-21T14:27:38;6.35;;;3.33;;
16199;SDS011;8207;52.494;4.654;2023-05-21T14:30:05;7.72;;;4.53;;
16199;SDS011;8207;52.494;4.654;2023-05-21T14:32:34;7.68;;;5.00;;
16199;SDS011;8207;52.494;4.654;2023-05-21T14:35:02;7.47;;;4.10;;
16199;SDS011;8207;52.494;4.654;2023-05-21T14:37:30;4.68;;;3.85;;
16199;SDS011;8207;52.494;4.654;2023-05-21T14:39:56;5.35;;;4.05;;
16199;SDS011;8207;52.494;4.654;2023-05-21T14:42:23;4.75;;;3.58;;
16199;SDS011;8207;52.494;4.654;2023-05-21T14:44:50;7.80;;;4.03;;
16199;SDS011;8207;52.494;4.654;2023-05-21T14:47:17;6.47;;;3.72;;
16199;SDS011;8207;52.494;4.654;2023-05-21T14:49:45;7.18;;;4.18;;
16199;SDS011;8207;52.494;4.654;2023-05-21T14:52:12;7.63;;;4.22;;
16199;SDS011;8207;52.494;4.654;2023-05-21T14:54:39;11.70;;;4.47;;
16199;SDS011;8207;52.494;4.654;2023-05-21T14:57:06;6.40;;;3.80;;
16199;SDS011;8207;52.494;4.654;2023-05-21T14:59:33;8.85;;;4.35;;
16199;SDS011;8207;52.494;4.654;2023-05-21T15:02:00;7.40;;;4.07;;
16199;SDS011;8207;52.494;4.654;2023-05-21T15:04:27;6.40;;;4.60;;
16199;SDS011;8207;52.494;4.654;2023-05-21T15:06:55;5.88;;;3.72;;
16199;SDS011;8207;52.494;4.654;2023-05-21T15:09:22;5.38;;;4.40;;
16199;SDS011;8207;52.494;4.654;2023-05-21T15:11:49;7.68;;;4.82;;